createdAt,value
2018-07-21T00:01:55.188Z,45.95
2018-07-21T00:04:24.803Z,45.92
2018-07-21T00:06:54.476Z,45.83
2018-07-21T00:09:24.139Z,46.20
2018-07-21T00:11:53.780Z,46.41
2018-07-21T00:14:23.462Z,46.54
2018-07-21T00:16:53.171Z,46.91
2018-07-21T00:19:22.804Z,47.09
2018-07-21T00:21:52.492Z,47.25
2018-07-21T00:24:22.131Z,47.74
2018-07-21T00:26:51.917Z,47.94
2018-07-21T00:29:21.588Z,47.38
2018-07-21T00:31:51.244Z,47.32
2018-07-21T00:34:20.891Z,47.16
2018-07-21T00:36:50.592Z,47.04
2018-07-21T00:39:20.243Z,47.70
2018-07-21T00:41:49.889Z,47.54
2018-07-21T00:44:19.571Z,47.30
2018-07-21T00:46:49.215Z,47.73
2018-07-21T00:49:18.904Z,47.44
2018-07-21T00:51:48.602Z,47.53
2018-07-21T00:54:18.248Z,47.86
2018-07-21T00:56:47.915Z,47.12
2018-07-21T00:59:17.617Z,47.08
2018-07-21T01:01:47.241Z,47.56
2018-07-21T01:04:16.897Z,47.21
2018-07-21T01:06:46.631Z,47.48
2018-07-21T01:09:16.276Z,47.75
2018-07-21T01:11:45.967Z,47.84
2018-07-21T01:14:15.674Z,48.02
2018-07-21T01:16:45.327Z,47.53
2018-07-21T01:19:15.004Z,47.96
2018-07-21T01:21:44.684Z,47.92
2018-07-21T01:24:14.328Z,47.90
2018-07-21T01:26:43.997Z,47.89
2018-07-21T01:29:13.720Z,47.66
2018-07-21T01:31:43.392Z,47.77
2018-07-21T01:34:13.061Z,47.94
2018-07-21T01:36:42.704Z,47.71
2018-07-21T01:39:12.724Z,47.88
2018-07-21T01:41:42.393Z,47.82
2018-07-21T01:44:12.043Z,48.11
2018-07-21T01:46:42.385Z,48.26
2018-07-21T01:49:12.092Z,48.52
2018-07-21T01:51:41.779Z,48.70
2018-07-21T01:54:11.463Z,48.89
2018-07-21T01:56:41.091Z,48.81
2018-07-21T01:59:10.753Z,49.04
2018-07-21T02:01:40.490Z,49.05
2018-07-21T02:04:10.136Z,49.11
2018-07-21T02:06:39.823Z,48.97
2018-07-21T02:09:10.661Z,49.32
2018-07-21T02:11:40.531Z,49.20
2018-07-21T02:14:10.207Z,49.10
2018-07-21T02:16:39.878Z,49.10
2018-07-21T02:19:09.544Z,49.13
2018-07-21T02:21:39.259Z,49.33
2018-07-21T02:24:08.923Z,48.80
2018-07-21T02:26:38.652Z,49.35
2018-07-21T02:29:08.367Z,49.55
2018-07-21T02:31:38.076Z,49.14
2018-07-21T02:34:07.732Z,49.70
2018-07-21T02:36:37.443Z,49.85
2018-07-21T02:39:10.146Z,49.51
2018-07-21T02:41:39.876Z,49.57
2018-07-21T02:44:09.582Z,49.28
2018-07-21T02:46:39.297Z,49.93
2018-07-21T02:49:09.043Z,50.43
2018-07-21T02:51:38.677Z,50.97
2018-07-21T02:54:08.384Z,50.44
2018-07-21T02:56:38.037Z,50.68
2018-07-21T02:59:07.684Z,50.52
2018-07-21T03:01:37.392Z,50.57
2018-07-21T03:04:07.062Z,50.98
2018-07-21T03:06:36.723Z,51.47
2018-07-21T03:09:09.289Z,50.95
2018-07-21T03:11:38.955Z,51.37
2018-07-21T03:14:08.712Z,51.17
2018-07-21T03:16:38.450Z,51.48
2018-07-21T03:19:08.103Z,50.96
2018-07-21T03:21:37.773Z,51.50
2018-07-21T03:24:07.538Z,50.73
2018-07-21T03:26:37.187Z,50.39
2018-07-21T03:29:06.854Z,50.56
2018-07-21T03:31:36.584Z,50.34
2018-07-21T03:34:06.440Z,51.03
2018-07-21T03:36:36.140Z,50.24
2018-07-21T03:39:09.149Z,50.68
2018-07-21T03:41:38.856Z,50.71
2018-07-21T03:44:08.543Z,50.35
2018-07-21T03:46:38.260Z,50.05
2018-07-21T03:49:07.919Z,50.17
2018-07-21T03:51:37.596Z,50.18
2018-07-21T03:54:07.320Z,50.28
2018-07-21T03:56:37.004Z,49.85
2018-07-21T03:59:06.689Z,49.71
2018-07-21T04:01:36.392Z,50.00
2018-07-21T04:04:06.179Z,50.61
2018-07-21T04:06:35.817Z,50.39
2018-07-21T04:09:07.972Z,49.80
2018-07-21T04:11:37.655Z,49.56
2018-07-21T04:14:07.592Z,50.18
2018-07-21T04:16:37.504Z,49.55
2018-07-21T04:19:07.813Z,49.69
2018-07-21T04:21:37.480Z,49.59
2018-07-21T04:24:07.276Z,50.03
2018-07-21T04:26:36.966Z,50.09
2018-07-21T04:29:06.623Z,49.33
2018-07-21T04:31:36.332Z,50.03
2018-07-21T04:34:06.002Z,49.92
2018-07-21T04:36:35.652Z,50.32
2018-07-21T04:39:08.155Z,50.08
2018-07-21T04:41:37.852Z,50.16
2018-07-21T04:44:07.622Z,50.27
2018-07-21T04:46:37.336Z,50.30
2018-07-21T04:49:07.025Z,49.99
2018-07-21T04:51:36.676Z,49.58
2018-07-21T04:54:06.396Z,49.79
2018-07-21T04:56:36.047Z,49.81
2018-07-21T04:59:05.675Z,49.78
2018-07-21T05:01:35.409Z,49.56
2018-07-21T05:04:05.060Z,50.03
2018-07-21T05:06:34.703Z,49.42
2018-07-21T05:09:06.233Z,50.32
2018-07-21T05:11:36.161Z,50.26
2018-07-21T05:14:06.538Z,50.28
2018-07-21T05:16:36.500Z,49.96
2018-07-21T05:19:06.591Z,50.39
2018-07-21T05:21:36.652Z,50.09
2018-07-21T05:24:06.611Z,49.63
2018-07-21T05:26:36.352Z,50.15
2018-07-21T05:29:06.060Z,49.33
2018-07-21T05:31:35.716Z,49.17
2018-07-21T05:34:05.419Z,48.45
2018-07-21T05:36:35.132Z,48.16
2018-07-21T05:39:06.635Z,48.36
2018-07-21T05:41:36.435Z,48.25
2018-07-21T05:44:06.119Z,48.37
2018-07-21T05:46:36.301Z,48.24
2018-07-21T05:49:06.090Z,47.50
2018-07-21T05:51:35.779Z,47.17
2018-07-21T05:54:05.533Z,46.47
2018-07-21T05:56:35.523Z,46.67
2018-07-21T05:59:05.321Z,46.05
2018-07-21T06:01:35.034Z,45.57
2018-07-21T06:04:05.254Z,44.91
2018-07-21T06:06:34.925Z,44.80
2018-07-21T06:09:06.588Z,44.42
2018-07-21T06:11:36.276Z,44.56
2018-07-21T06:14:06.284Z,44.43
2018-07-21T06:16:36.014Z,44.65
2018-07-21T06:19:06.001Z,44.98
2018-07-21T06:21:35.719Z,44.55
2018-07-21T06:24:05.500Z,44.51
2018-07-21T06:26:35.278Z,44.08
2018-07-21T06:29:04.956Z,44.12
2018-07-21T06:31:34.632Z,43.79
2018-07-21T06:34:04.400Z,44.51
2018-07-21T06:36:34.092Z,43.38
2018-07-21T06:39:03.856Z,43.25
2018-07-21T06:41:33.536Z,43.26
2018-07-21T06:44:06.100Z,42.96
2018-07-21T06:46:35.804Z,42.94
2018-07-21T06:49:05.769Z,41.75
2018-07-21T06:51:35.436Z,41.29
2018-07-21T06:54:05.203Z,40.58
2018-07-21T06:56:34.836Z,40.80
2018-07-21T06:59:04.516Z,40.95
2018-07-21T07:01:34.389Z,40.70
2018-07-21T07:04:04.177Z,40.91
2018-07-21T07:06:33.831Z,40.81
2018-07-21T07:09:03.696Z,41.43
2018-07-21T07:11:33.340Z,41.78
2018-07-21T07:14:03.743Z,42.03
2018-07-21T07:16:33.375Z,41.67
2018-07-21T07:19:02.996Z,42.67
2018-07-21T07:21:32.923Z,41.97
2018-07-21T07:24:02.920Z,42.54
2018-07-21T07:26:32.576Z,43.15
2018-07-21T07:29:02.209Z,43.03
2018-07-21T07:31:31.877Z,43.11
2018-07-21T07:34:01.532Z,42.15
2018-07-21T07:36:31.152Z,42.84
2018-07-21T07:39:00.801Z,41.79
2018-07-21T07:41:30.478Z,41.89
2018-07-21T07:44:00.124Z,41.79
2018-07-21T07:46:29.811Z,42.65
2018-07-21T07:48:59.501Z,42.39
2018-07-21T07:51:29.127Z,41.31
2018-07-21T07:53:58.979Z,40.50
2018-07-21T07:56:28.627Z,40.50
2018-07-21T07:58:58.609Z,41.13
2018-07-21T08:01:28.572Z,40.87
2018-07-21T08:03:58.199Z,41.21
2018-07-21T08:06:27.868Z,39.95
2018-07-21T08:08:57.560Z,39.76
2018-07-21T08:11:27.277Z,39.05
2018-07-21T08:13:56.924Z,39.00
2018-07-21T08:16:26.606Z,39.47
2018-07-21T08:18:56.249Z,39.06
2018-07-21T08:21:25.912Z,38.35
2018-07-21T08:23:55.596Z,38.72
2018-07-21T08:26:25.212Z,38.85
2018-07-21T08:28:54.904Z,38.38
2018-07-21T08:31:24.591Z,39.14
2018-07-21T08:33:54.248Z,38.51
2018-07-21T08:36:23.922Z,38.38
2018-07-21T08:38:53.577Z,38.18
2018-07-21T08:41:23.219Z,38.62
2018-07-21T08:43:52.931Z,37.64
2018-07-21T08:46:22.667Z,37.59
2018-07-21T08:48:52.332Z,38.21
2018-07-21T08:51:21.980Z,37.98
2018-07-21T08:53:51.650Z,38.46
2018-07-21T08:56:21.281Z,37.54
2018-07-21T08:58:50.915Z,36.46
2018-07-21T09:01:20.632Z,37.17
2018-07-21T09:03:50.299Z,37.09
2018-07-21T09:06:19.905Z,36.82
2018-07-21T09:08:49.566Z,36.52
2018-07-21T09:11:19.184Z,35.04
2018-07-21T09:13:48.816Z,35.62
2018-07-21T09:16:18.529Z,35.26
2018-07-21T09:18:48.207Z,34.36
2018-07-21T09:21:17.848Z,33.33
2018-07-21T09:23:47.516Z,33.53
2018-07-21T09:26:17.165Z,33.47
2018-07-21T09:28:46.847Z,32.69
2018-07-21T09:31:16.820Z,32.49
2018-07-21T09:33:46.437Z,32.96
2018-07-21T09:36:16.111Z,32.64
2018-07-21T09:38:45.755Z,32.96
2018-07-21T09:41:15.478Z,32.06
2018-07-21T09:43:45.104Z,32.15
2018-07-21T09:46:14.824Z,32.41
2018-07-21T09:48:44.464Z,32.32
2018-07-21T09:51:14.144Z,33.04
2018-07-21T09:53:43.788Z,33.01
2018-07-21T09:56:13.439Z,32.17
2018-07-21T09:58:43.230Z,32.69
2018-07-21T10:01:12.879Z,32.36
2018-07-21T10:03:42.537Z,31.66
2018-07-21T10:06:12.460Z,30.77
2018-07-21T10:08:42.099Z,31.58
2018-07-21T10:11:11.785Z,31.38
2018-07-21T10:13:41.479Z,31.58
2018-07-21T10:16:11.151Z,31.39
2018-07-21T10:18:40.800Z,30.32
2018-07-21T10:21:10.585Z,30.72
2018-07-21T10:23:40.264Z,31.31
2018-07-21T10:26:15.180Z,31.25
2018-07-21T10:28:49.877Z,31.06
2018-07-21T10:31:19.568Z,30.84
2018-07-21T10:33:49.192Z,30.81
2018-07-21T10:36:18.811Z,30.67
2018-07-21T10:38:48.572Z,29.99
2018-07-21T10:41:18.196Z,29.55
2018-07-21T10:43:47.835Z,29.66
2018-07-21T10:46:17.488Z,29.95
2018-07-21T10:48:47.175Z,30.20
2018-07-21T10:51:16.873Z,29.83
2018-07-21T10:53:46.562Z,29.68
2018-07-21T10:56:16.203Z,30.11
2018-07-21T10:58:45.817Z,29.29
2018-07-21T11:01:15.463Z,29.43
2018-07-21T11:03:45.128Z,29.09
2018-07-21T11:06:14.763Z,29.15
2018-07-21T11:08:44.447Z,30.41
2018-07-21T11:11:14.112Z,30.94
2018-07-21T11:13:43.771Z,30.49
2018-07-21T11:16:13.499Z,30.40
2018-07-21T11:18:43.146Z,31.15
2018-07-21T11:21:12.817Z,30.48
2018-07-21T11:23:42.512Z,30.28
2018-07-21T11:26:12.238Z,30.04
2018-07-21T11:28:41.932Z,30.29
2018-07-21T11:31:12.024Z,30.12
2018-07-21T11:33:41.691Z,29.80
2018-07-21T11:36:11.603Z,30.79
2018-07-21T11:38:41.131Z,30.53
2018-07-21T11:41:10.811Z,30.50
2018-07-21T11:43:40.497Z,30.65
2018-07-21T11:46:10.191Z,30.84
2018-07-21T11:48:39.840Z,31.45
2018-07-21T11:51:09.485Z,31.87
2018-07-21T11:53:39.180Z,30.78
2018-07-21T11:56:08.856Z,31.50
2018-07-21T11:58:38.525Z,30.75
2018-07-21T12:01:08.813Z,30.97
2018-07-21T12:03:38.471Z,31.15
2018-07-21T12:06:08.164Z,30.55
2018-07-21T12:08:37.821Z,31.11
2018-07-21T12:11:07.445Z,30.77
2018-07-21T12:13:37.219Z,31.04
2018-07-21T12:16:06.869Z,30.86
2018-07-21T12:18:36.528Z,30.12
2018-07-21T12:21:06.333Z,29.91
2018-07-21T12:23:35.994Z,31.04
2018-07-21T12:26:05.921Z,30.75
2018-07-21T12:28:35.630Z,30.88
2018-07-21T12:31:05.295Z,30.13
2018-07-21T12:33:34.931Z,30.31
2018-07-21T12:36:04.931Z,30.44
2018-07-21T12:38:34.599Z,30.71
2018-07-21T12:41:04.320Z,30.22
2018-07-21T12:43:34.009Z,30.00
2018-07-21T12:46:03.741Z,29.33
2018-07-21T12:48:33.439Z,29.71
2018-07-21T12:51:03.172Z,28.90
2018-07-21T12:53:33.220Z,28.49
2018-07-21T12:56:02.919Z,29.05
2018-07-21T12:58:33.480Z,28.79
2018-07-21T13:01:03.214Z,27.99
2018-07-21T13:03:32.861Z,28.10
2018-07-21T13:06:02.579Z,29.23
2018-07-21T13:08:32.271Z,29.37
2018-07-21T13:11:02.074Z,29.79
2018-07-21T13:13:31.773Z,30.00
2018-07-21T13:16:01.517Z,29.20
2018-07-21T13:18:31.257Z,29.42
2018-07-21T13:21:00.956Z,30.50
2018-07-21T13:23:30.667Z,30.19
2018-07-21T13:26:00.368Z,30.02
2018-07-21T13:28:30.060Z,29.52
2018-07-21T13:30:59.736Z,28.88
2018-07-21T13:33:29.486Z,28.59
2018-07-21T13:35:59.176Z,29.16
2018-07-21T13:38:28.859Z,29.40
2018-07-21T13:40:58.612Z,28.72
2018-07-21T13:43:28.376Z,28.59
2018-07-21T13:45:58.128Z,28.43
2018-07-21T13:48:27.796Z,29.57
2018-07-21T13:50:57.475Z,29.05
2018-07-21T13:53:27.263Z,28.14
2018-07-21T13:55:56.961Z,29.01
2018-07-21T13:58:26.747Z,29.43
2018-07-21T14:00:56.467Z,29.19
2018-07-21T14:03:26.640Z,29.26
2018-07-21T14:05:56.341Z,29.10
2018-07-21T14:08:26.013Z,30.04
2018-07-21T14:10:55.760Z,30.04
2018-07-21T14:13:25.787Z,30.06
2018-07-21T14:15:55.507Z,29.97
2018-07-21T14:18:25.235Z,30.88
2018-07-21T14:20:54.951Z,29.64
2018-07-21T14:23:24.672Z,30.73
2018-07-21T14:25:54.717Z,30.96
2018-07-21T14:28:24.391Z,31.37
2018-07-21T14:30:54.109Z,30.98
2018-07-21T14:33:23.796Z,31.10
2018-07-21T14:35:53.551Z,30.38
2018-07-21T14:38:23.580Z,31.01
2018-07-21T14:40:53.279Z,30.83
2018-07-21T14:43:22.976Z,31.10
2018-07-21T14:45:52.731Z,30.89
2018-07-21T14:48:22.400Z,30.78
2018-07-21T14:50:52.539Z,31.29
2018-07-21T14:53:22.188Z,31.91
2018-07-21T14:55:51.887Z,32.13
2018-07-21T14:58:21.624Z,32.16
2018-07-21T15:00:51.333Z,31.51
2018-07-21T15:03:21.079Z,31.51
2018-07-21T15:05:51.332Z,32.10
2018-07-21T15:08:21.244Z,32.62
2018-07-21T15:10:50.977Z,32.16
2018-07-21T15:13:20.672Z,32.19
2018-07-21T15:15:50.918Z,32.64
2018-07-21T15:18:20.632Z,33.71
2018-07-21T15:20:50.406Z,33.00
2018-07-21T15:23:20.672Z,32.18
2018-07-21T15:25:50.446Z,32.29
2018-07-21T15:28:20.147Z,32.23
2018-07-21T15:30:49.839Z,32.74
2018-07-21T15:33:19.560Z,32.69
2018-07-21T15:35:50.548Z,32.51
2018-07-21T15:38:20.248Z,32.79
2018-07-21T15:40:49.932Z,32.58
2018-07-21T15:43:19.610Z,32.43
2018-07-21T15:45:49.463Z,33.34
2018-07-21T15:48:19.160Z,33.91
2018-07-21T15:50:48.828Z,33.60
2018-07-21T15:53:18.576Z,33.79
2018-07-21T15:55:48.271Z,34.77
2018-07-21T15:58:17.960Z,34.63
2018-07-21T16:00:47.669Z,33.93
2018-07-21T16:03:17.367Z,33.97
2018-07-21T16:05:47.115Z,33.87
2018-07-21T16:08:16.804Z,34.33
2018-07-21T16:10:46.488Z,33.88
2018-07-21T16:13:16.220Z,33.89
2018-07-21T16:15:45.937Z,34.45
2018-07-21T16:18:15.959Z,35.08
2018-07-21T16:20:45.694Z,34.18
2018-07-21T16:23:15.389Z,34.74
2018-07-21T16:25:45.610Z,34.36
2018-07-21T16:28:15.280Z,34.79
2018-07-21T16:30:44.974Z,35.62
2018-07-21T16:33:14.708Z,34.81
2018-07-21T16:35:44.393Z,35.82
2018-07-21T16:38:14.129Z,35.46
2018-07-21T16:40:43.800Z,35.39
2018-07-21T16:43:13.468Z,36.16
2018-07-21T16:45:43.179Z,35.45
2018-07-21T16:48:12.903Z,35.31
2018-07-21T16:50:42.976Z,36.16
2018-07-21T16:53:12.671Z,35.48
2018-07-21T16:55:42.341Z,35.85
2018-07-21T16:58:12.001Z,35.57
2018-07-21T17:00:41.751Z,36.44
2018-07-21T17:03:11.419Z,36.89
2018-07-21T17:05:41.152Z,35.70
2018-07-21T17:08:10.838Z,36.54
2018-07-21T17:10:40.577Z,36.76
2018-07-21T17:13:10.331Z,36.48
2018-07-21T17:15:40.019Z,36.64
2018-07-21T17:18:09.801Z,37.43
2018-07-21T17:20:39.596Z,37.45
2018-07-21T17:23:09.281Z,37.37
2018-07-21T17:25:39.432Z,37.75
2018-07-21T17:28:09.116Z,37.34
2018-07-21T17:30:39.214Z,38.37
2018-07-21T17:33:08.974Z,38.26
2018-07-21T17:35:38.676Z,37.83
2018-07-21T17:38:08.409Z,37.67
2018-07-21T17:40:38.106Z,38.76
2018-07-21T17:43:07.785Z,38.30
2018-07-21T17:45:37.602Z,38.60
2018-07-21T17:48:07.510Z,39.15
2018-07-21T17:50:37.273Z,38.99
2018-07-21T17:53:06.983Z,38.63
2018-07-21T17:55:36.707Z,39.13
2018-07-21T17:58:06.531Z,38.98
2018-07-21T18:00:36.575Z,39.45
2018-07-21T18:03:06.259Z,38.56
2018-07-21T18:05:36.416Z,39.49
2018-07-21T18:08:06.132Z,38.78
2018-07-21T18:10:35.794Z,39.30
2018-07-21T18:13:05.501Z,40.32
2018-07-21T18:15:35.151Z,40.15
2018-07-21T18:18:04.994Z,39.33
2018-07-21T18:20:34.696Z,40.62
2018-07-21T18:23:04.444Z,40.27
2018-07-21T18:25:34.468Z,39.91
2018-07-21T18:28:04.193Z,41.11
2018-07-21T18:30:33.859Z,40.54
2018-07-21T18:33:03.602Z,40.47
2018-07-21T18:35:33.659Z,40.51
2018-07-21T18:38:03.353Z,41.14
2018-07-21T18:40:33.070Z,41.21
2018-07-21T18:43:02.783Z,41.25
2018-07-21T18:45:32.544Z,41.78
2018-07-21T18:48:02.240Z,41.18
2018-07-21T18:50:31.916Z,41.22
2018-07-21T18:53:01.607Z,42.16
2018-07-21T18:55:31.284Z,41.63
2018-07-21T18:58:00.956Z,41.96
2018-07-21T19:00:30.713Z,41.98
2018-07-21T19:03:00.685Z,42.57
2018-07-21T19:05:30.424Z,43.00
2018-07-21T19:08:00.123Z,42.46
2018-07-21T19:10:29.815Z,43.06
2018-07-21T19:12:59.592Z,43.47
2018-07-21T19:15:34.252Z,43.68
2018-07-21T19:18:04.473Z,43.91
2018-07-21T19:20:39.124Z,44.28
2018-07-21T19:23:08.891Z,44.74
2018-07-21T19:25:43.643Z,43.86
2018-07-21T19:28:13.332Z,44.16
2018-07-21T19:30:42.988Z,44.92
2018-07-21T19:33:12.662Z,45.22
2018-07-21T19:35:42.371Z,44.99
2018-07-21T19:38:12.102Z,45.57
2018-07-21T19:40:41.801Z,45.13
2018-07-21T19:43:11.582Z,45.37
2018-07-21T19:45:41.291Z,46.29
2018-07-21T19:48:10.868Z,47.24
2018-07-21T19:50:40.552Z,46.83
2018-07-21T19:53:10.208Z,46.64
2018-07-21T19:55:39.839Z,47.23
2018-07-21T19:58:09.574Z,46.71
2018-07-21T20:00:39.267Z,46.84
2018-07-21T20:03:08.923Z,47.05
2018-07-21T20:05:38.624Z,47.93
2018-07-21T20:08:08.467Z,48.43
2018-07-21T20:10:38.176Z,48.95
2018-07-21T20:13:07.903Z,48.78
2018-07-21T20:15:37.708Z,48.54
2018-07-21T20:18:07.478Z,48.72
2018-07-21T20:20:37.279Z,49.35
2018-07-21T20:23:07.106Z,49.47
2018-07-21T20:25:36.993Z,48.71
2018-07-21T20:28:06.801Z,49.44
2018-07-21T20:30:36.542Z,48.56
2018-07-21T20:33:06.404Z,49.34
2018-07-21T20:35:36.155Z,49.33
2018-07-21T20:38:06.134Z,48.81
2018-07-21T20:40:35.806Z,49.04
2018-07-21T20:43:05.556Z,50.05
2018-07-21T20:45:35.316Z,49.39
2018-07-21T20:48:05.567Z,49.36
2018-07-21T20:50:35.331Z,49.33
2018-07-21T20:53:05.109Z,49.52
2018-07-21T20:55:34.840Z,49.72
2018-07-21T20:58:04.979Z,50.18
2018-07-21T21:00:35.034Z,50.98
2018-07-21T21:03:04.764Z,51.38
2018-07-21T21:05:34.722Z,51.04
2018-07-21T21:08:04.548Z,51.85
2018-07-21T21:10:34.307Z,51.07
2018-07-21T21:13:04.108Z,51.53
2018-07-21T21:15:33.779Z,51.37
2018-07-21T21:18:03.503Z,50.94
2018-07-21T21:20:33.513Z,51.50
2018-07-21T21:23:03.200Z,51.57
2018-07-21T21:25:32.964Z,51.05
2018-07-21T21:28:02.711Z,52.05
2018-07-21T21:30:32.469Z,51.60
2018-07-21T21:33:02.252Z,51.88
2018-07-21T21:35:31.960Z,52.42
2018-07-21T21:38:01.729Z,52.53
2018-07-21T21:40:31.541Z,51.77
2018-07-21T21:43:01.247Z,52.62
2018-07-21T21:45:31.005Z,53.05
2018-07-21T21:48:00.930Z,53.23
2018-07-21T21:50:30.656Z,52.76
2018-07-21T21:53:01.254Z,54.01
2018-07-21T21:55:30.968Z,54.18
2018-07-21T21:58:00.635Z,53.98
2018-07-21T22:00:58.756Z,53.36
2018-07-21T22:03:30.639Z,53.10
2018-07-21T22:06:00.863Z,53.96
2018-07-21T22:08:31.558Z,53.67
2018-07-21T22:11:01.625Z,54.09
2018-07-21T22:13:31.557Z,54.71
2018-07-21T22:16:01.455Z,54.47
2018-07-21T22:18:31.946Z,54.21
2018-07-21T22:21:01.728Z,54.49
2018-07-21T22:23:31.427Z,54.02
2018-07-21T22:26:01.151Z,54.21
2018-07-21T22:28:30.904Z,54.42
2018-07-21T22:31:00.619Z,54.74
2018-07-21T22:33:30.514Z,54.54
2018-07-21T22:36:01.203Z,54.10
2018-07-21T22:38:30.936Z,54.08
2018-07-21T22:41:00.647Z,54.61
2018-07-21T22:43:30.401Z,54.78
2018-07-21T22:46:00.065Z,55.11
2018-07-21T22:48:29.762Z,54.45
2018-07-21T22:50:59.477Z,55.36
2018-07-21T22:53:29.140Z,54.90
2018-07-21T22:55:58.799Z,54.70
2018-07-21T22:58:28.508Z,55.00
2018-07-21T23:00:58.179Z,54.22
2018-07-21T23:03:27.907Z,55.01
2018-07-21T23:05:57.629Z,54.45
2018-07-21T23:08:27.294Z,54.33
2018-07-21T23:10:56.970Z,55.00
2018-07-21T23:13:26.684Z,54.86
2018-07-21T23:15:56.380Z,54.94
2018-07-21T23:18:26.110Z,54.57
2018-07-21T23:20:55.794Z,55.06
2018-07-21T23:23:25.476Z,55.43
2018-07-21T23:25:55.188Z,54.63
2018-07-21T23:28:25.041Z,55.10
2018-07-21T23:30:54.748Z,55.62
2018-07-21T23:33:24.474Z,55.73
2018-07-21T23:35:54.160Z,55.97
2018-07-21T23:38:23.844Z,55.41
2018-07-21T23:40:53.555Z,55.57
2018-07-21T23:43:23.246Z,55.39
2018-07-21T23:45:52.927Z,55.11
2018-07-21T23:48:22.646Z,55.06
2018-07-21T23:50:52.311Z,55.18
2018-07-21T23:53:21.991Z,56.18
2018-07-21T23:55:51.729Z,55.92
2018-07-21T23:58:21.397Z,56.00
